Milestone, Ireland
Current Conditions -  °F | °C
As of 4:30 AM on Saturday 20 Dec 2014 (Local Time) from EINN Reporting Station
Broken Clouds Broken Clouds  
Wind Chill: 40°   Ceiling: 3000
Heat Index: 46°   Visibility: 6mi
Dew Point: 41°   Wind: 15mph
Humidity: 81%   Direction: 260°W
Pressure: 30.3"   Gusts: NA
Location:  52.67°N, 8.08°W
Report Text: EINN 200330Z 26013KT 9999 FEW020 BKN030 BKN050 08/05 Q1026 NOSIG
Loading
Personal Weather Stations






























Interactive Weather Map New forecast layout! Learn more

10-Day Weather Forecast

Advertisements
Track Severe Weather on mobile